Boston, Massachusetts
Current Conditions -  °F | °C
As of 3:54 AM on Saturday 20 Dec 2014 (Local Time) from KBOS Reporting Station
Clear Clear  
Wind Chill: 19°   Ceiling: Unl
Heat Index: 28°   Visibility: 10mi
Dew Point: 20°   Wind: 9mph
Humidity: 72%   Direction: 340°NNW
Pressure: 30.2"   Gusts: NA
Location:  42.36°N, 71.06°W
Report Text: KBOS 200854Z 34008KT 10SM CLR M02/M07 A3020 RMK AO2 SLP225 T10221067 51011
Loading
Personal Weather Stations






























Interactive Weather Map New forecast layout! Learn more

10-Day Weather Forecast

Advertisements
Track Severe Weather on mobile